Time;durP1;ratioP1;P1;durP2;ratioP2;P2;SDS_P1;SDS_P2;PMS_P1;PMS_P2;Temp;Humidity;BMP_temperature;BMP_pressure;BME280_temperature;BME280_humidity;BME280_pressure;Samples;Min_cycle;Max_cycle;Signal;HPM_P1;HPM_P2
2023/06/20 00:03:39;;;;;;;11.23;7.27;;;24.30;92.50;;;;;;10228345;28;20706;-70
2023/06/20 00:08:40;;;;;;;8.10;7.20;;;23.90;94.70;;;;;;10232620;28;20231;-71
2023/06/20 00:13:42;;;;;;;10.00;7.37;;;23.70;96.30;;;;;;10224161;28;20310;-71
2023/06/20 00:18:43;;;;;;;9.17;6.90;;;23.60;98.20;;;;;;10228192;28;20228;-70
2023/06/20 00:23:43;;;;;;;9.17;7.37;;;23.50;99.90;;;;;;10229243;28;20220;-70
2023/06/20 00:28:44;;;;;;;9.37;7.73;;;23.40;99.90;;;;;;10227445;28;20274;-71
2023/06/20 00:33:45;;;;;;;8.73;7.13;;;23.40;99.90;;;;;;10227209;28;20687;-70
2023/06/20 00:38:48;;;;;;;8.20;7.40;;;23.40;99.90;;;;;;10234030;28;20600;-69
2023/06/20 00:43:49;;;;;;;10.97;8.70;;;23.40;99.90;;;;;;10228085;28;20220;-71
2023/06/20 00:48:50;;;;;;;11.80;7.77;;;23.30;99.90;;;;;;10232392;28;20656;-70
2023/06/20 00:53:51;;;;;;;8.93;7.80;;;23.30;99.90;;;;;;10221332;28;20232;-71
2023/06/20 00:58:52;;;;;;;7.97;7.20;;;23.20;99.90;;;;;;10226503;28;20221;-71
2023/06/20 01:03:53;;;;;;;9.93;7.90;;;23.10;99.90;;;;;;10221252;28;20231;-74
2023/06/20 01:09:06;;;;;;;11.10;8.60;;;23.10;99.90;;;;;;10220133;28;20238;-73
2023/06/20 01:14:30;;;;;;;9.07;8.20;;;23.00;99.90;;;;;;10231426;28;20232;-73
2023/06/20 01:19:49;;;;;;;9.07;8.17;;;22.80;99.90;;;;;;10232855;28;20223;-74
2023/06/20 01:24:58;;;;;;;8.73;7.93;;;22.70;99.90;;;;;;10226809;28;20652;-74
2023/06/20 01:30:16;;;;;;;10.43;8.13;;;22.70;99.90;;;;;;10229029;28;20216;-74
2023/06/20 01:35:22;;;;;;;8.97;8.10;;;22.70;99.90;;;;;;10228859;28;20232;-73
2023/06/20 01:40:24;;;;;;;9.27;8.37;;;22.60;99.90;;;;;;10225923;28;20960;-75
2023/06/20 01:45:38;;;;;;;8.70;7.90;;;22.70;99.90;;;;;;10223297;28;20214;-74
2023/06/20 01:50:40;;;;;;;8.23;7.40;;;22.60;99.90;;;;;;10256379;28;20227;-73
2023/06/20 01:55:47;;;;;;;9.30;8.30;;;22.60;99.90;;;;;;10217656;28;20228;-73
2023/06/20 02:00:49;;;;;;;9.90;7.93;;;22.50;99.90;;;;;;10223684;28;20354;-73
2023/06/20 02:05:50;;;;;;;8.03;7.23;;;22.30;99.90;;;;;;10225422;28;20242;-74
2023/06/20 02:10:51;;;;;;;9.30;7.13;;;22.30;99.90;;;;;;10218617;28;20235;-73
2023/06/20 02:15:53;;;;;;;7.30;6.53;;;22.20;99.90;;;;;;10224693;28;20273;-73
2023/06/20 02:20:54;;;;;;;6.90;6.17;;;22.20;99.90;;;;;;10222967;28;20706;-74
2023/06/20 02:26:07;;;;;;;7.47;6.73;;;22.20;99.90;;;;;;10224132;28;20235;-74
2023/06/20 02:31:13;;;;;;;7.33;6.67;;;22.30;99.90;;;;;;10220629;28;20286;-74
2023/06/20 02:36:14;;;;;;;6.80;6.13;;;22.30;99.90;;;;;;10218983;28;20223;-73
2023/06/20 02:41:14;;;;;;;6.87;6.23;;;22.40;99.90;;;;;;10225391;28;20227;-74
2023/06/20 02:46:27;;;;;;;7.53;6.73;;;22.50;99.90;;;;;;10220345;28;20231;-74
2023/06/20 02:51:36;;;;;;;7.27;6.57;;;22.60;99.90;;;;;;10225146;28;20247;-74
2023/06/20 02:56:38;;;;;;;7.00;6.40;;;22.60;99.90;;;;;;10222436;28;20235;-74
2023/06/20 03:01:44;;;;;;;7.47;6.77;;;22.60;99.90;;;;;;10215354;28;20380;-74
2023/06/20 03:06:50;;;;;;;8.87;7.77;;;22.50;99.90;;;;;;10214911;28;20245;-74
2023/06/20 03:11:50;;;;;;;8.27;7.43;;;22.40;99.90;;;;;;10228227;28;20647;-73
2023/06/20 03:16:51;;;;;;;8.07;7.30;;;22.40;99.90;;;;;;10214526;28;20228;-74
2023/06/20 03:21:54;;;;;;;8.50;7.80;;;22.40;99.90;;;;;;10230716;28;20238;-74
2023/06/20 03:26:54;;;;;;;8.50;7.70;;;22.30;99.90;;;;;;10222220;28;20236;-74
2023/06/20 03:31:55;;;;;;;8.90;8.03;;;22.20;99.90;;;;;;10229402;28;20285;-74
2023/06/20 03:36:55;;;;;;;9.10;8.30;;;22.10;99.90;;;;;;10226638;28;20288;-74
2023/06/20 03:41:56;;;;;;;8.63;7.70;;;22.00;99.90;;;;;;10217096;28;20254;-74
2023/06/20 03:46:56;;;;;;;9.27;8.30;;;22.10;99.90;;;;;;10226596;28;20599;-74
2023/06/20 03:51:57;;;;;;;9.17;8.37;;;22.00;99.90;;;;;;10230346;28;20273;-74
2023/06/20 03:57:01;;;;;;;9.10;8.20;;;22.00;99.90;;;;;;10226680;28;20231;-73
2023/06/20 04:02:03;;;;;;;10.57;9.57;;;22.10;99.90;;;;;;10226751;28;20279;-74
2023/06/20 04:07:04;;;;;;;10.83;9.80;;;22.10;99.90;;;;;;10225536;28;20327;-73
2023/06/20 04:12:05;;;;;;;11.73;10.57;;;22.00;99.90;;;;;;10227082;28;20292;-74
2023/06/20 04:17:06;;;;;;;10.80;9.80;;;22.00;99.90;;;;;;10227303;28;20247;-73
2023/06/20 04:22:08;;;;;;;11.50;10.40;;;22.10;99.90;;;;;;10230650;28;20250;-74
2023/06/20 04:27:08;;;;;;;10.07;8.83;;;22.30;99.90;;;;;;10224926;28;20243;-74
2023/06/20 04:32:09;;;;;;;10.83;9.87;;;22.50;99.90;;;;;;10231349;28;20234;-74
2023/06/20 04:37:09;;;;;;;10.80;9.80;;;22.60;99.90;;;;;;10219885;28;20234;-74
2023/06/20 04:42:10;;;;;;;11.93;10.60;;;22.60;99.90;;;;;;10224390;28;20234;-74
2023/06/20 04:47:13;;;;;;;14.37;10.93;;;22.60;99.90;;;;;;10233899;28;20232;-74
2023/06/20 04:52:14;;;;;;;9.83;8.93;;;22.60;99.90;;;;;;10219139;28;20292;-74
2023/06/20 04:57:15;;;;;;;10.03;9.07;;;22.90;99.90;;;;;;10223889;28;20263;-74
2023/06/20 05:02:15;;;;;;;9.93;9.13;;;23.30;99.90;;;;;;10228965;28;20278;-74
2023/06/20 05:07:16;;;;;;;9.80;9.00;;;23.80;99.90;;;;;;10227411;28;20232;-74
2023/06/20 05:12:16;;;;;;;8.00;7.30;;;24.50;99.90;;;;;;10223909;28;20729;-74
2023/06/20 05:17:17;;;;;;;10.43;9.43;;;27.00;99.90;;;;;;10229002;28;20679;-73
2023/06/20 05:22:18;;;;;;;8.37;7.57;;;29.30;99.90;;;;;;10224848;28;20689;-73
2023/06/20 05:27:18;;;;;;;8.77;7.97;;;30.90;99.90;;;;;;10227668;28;20227;-74
2023/06/20 05:32:19;;;;;;;8.03;7.03;;;32.10;99.90;;;;;;10229632;28;20281;-74
2023/06/20 05:37:19;;;;;;;12.13;8.33;;;32.80;99.60;;;;;;10228664;28;20368;-73
2023/06/20 05:42:20;;;;;;;8.73;7.83;;;33.30;96.10;;;;;;10226488;28;20231;-73
2023/06/20 05:47:21;;;;;;;8.43;7.63;;;33.90;92.80;;;;;;10220244;28;20828;-74
2023/06/20 05:52:21;;;;;;;7.67;6.97;;;34.30;91.20;;;;;;10223262;28;20694;-75
2023/06/20 05:57:25;;;;;;;6.87;5.90;;;35.30;85.50;;;;;;10225792;28;20227;-74
2023/06/20 06:02:25;;;;;;;9.47;6.87;;;35.40;82.10;;;;;;10223371;28;20307;-74
2023/06/20 06:07:26;;;;;;;6.67;6.07;;;36.10;77.80;;;;;;10223233;28;20793;-74
2023/06/20 06:12:26;;;;;;;6.60;6.03;;;37.00;72.50;;;;;;10234628;28;20219;-73
2023/06/20 06:17:28;;;;;;;5.00;4.57;;;37.70;68.30;;;;;;10228953;28;20596;-73
2023/06/20 06:22:28;;;;;;;7.53;5.37;;;38.30;65.30;;;;;;10218644;28;20224;-73
2023/06/20 06:27:29;;;;;;;11.37;6.07;;;38.70;62.00;;;;;;10222665;28;20231;-73
2023/06/20 06:32:33;;;;;;;8.43;6.10;;;38.90;58.70;;;;;;10211226;28;20778;-73
2023/06/20 06:37:34;;;;;;;5.07;4.60;;;39.40;58.00;;;;;;10231872;28;20219;-73
2023/06/20 06:42:35;;;;;;;7.77;5.73;;;39.60;56.30;;;;;;10223704;28;21008;-73
2023/06/20 06:47:36;;;;;;;6.60;5.20;;;39.90;55.20;;;;;;10224176;28;20318;-73
2023/06/20 06:52:38;;;;;;;7.10;5.83;;;39.80;54.20;;;;;;10217358;28;20427;-73
2023/06/20 06:57:42;;;;;;;6.40;5.87;;;40.20;53.80;;;;;;10224343;28;20696;-73
2023/06/20 07:02:44;;;;;;;8.40;5.70;;;40.10;52.70;;;;;;10216828;28;20228;-74
2023/06/20 07:07:45;;;;;;;6.43;5.83;;;40.10;52.90;;;;;;10254503;28;20235;-73
2023/06/20 07:12:45;;;;;;;7.93;5.63;;;40.70;51.50;;;;;;10217380;28;20231;-74
2023/06/20 07:17:46;;;;;;;8.10;7.30;;;41.40;50.20;;;;;;10228821;28;20272;-75
2023/06/20 07:22:47;;;;;;;10.30;6.70;;;42.00;48.50;;;;;;10226738;28;20318;-75
2023/06/20 07:27:47;;;;;;;7.80;7.20;;;41.70;48.20;;;;;;10231740;28;20464;-75
2023/06/20 07:32:51;;;;;;;6.60;6.00;;;41.10;48.90;;;;;;10236583;28;20301;-73
2023/06/20 07:37:54;;;;;;;6.47;5.87;;;40.80;50.00;;;;;;10239271;28;20322;-75
2023/06/20 07:42:55;;;;;;;7.33;6.60;;;41.90;48.80;;;;;;10230818;28;20694;-74
2023/06/20 07:47:55;;;;;;;7.30;6.70;;;42.70;46.70;;;;;;10234739;28;20231;-75
2023/06/20 07:52:56;;;;;;;6.95;6.28;;;42.50;46.30;;;;;;10224428;28;20238;-74
2023/06/20 07:57:57;;;;;;;8.23;7.43;;;43.10;45.50;;;;;;10229535;28;20219;-75
2023/06/20 08:02:58;;;;;;;6.60;6.10;;;42.70;45.60;;;;;;10227712;28;20224;-74
2023/06/20 08:07:58;;;;;;;7.57;6.88;;;43.80;44.50;;;;;;10232990;28;20234;-75
2023/06/20 08:13:00;;;;;;;7.38;6.72;;;44.10;43.70;;;;;;10229646;28;20235;-75
2023/06/20 08:18:01;;;;;;;7.40;6.72;;;43.80;44.00;;;;;;10226218;28;20318;-74
2023/06/20 08:23:01;;;;;;;7.85;7.15;;;43.70;43.50;;;;;;10236618;28;20243;-74
2023/06/20 08:28:02;;;;;;;7.47;6.78;;;42.70;44.60;;;;;;10226405;28;20227;-74
2023/06/20 08:33:02;;;;;;;7.28;6.68;;;42.60;45.00;;;;;;10223822;28;20247;-74
2023/06/20 08:38:03;;;;;;;8.02;7.45;;;42.80;45.20;;;;;;10231599;28;20366;-74
2023/06/20 08:43:04;;;;;;;9.25;6.90;;;43.90;43.80;;;;;;10223916;28;20253;-75
2023/06/20 08:48:05;;;;;;;8.63;7.72;;;45.00;41.20;;;;;;10236183;28;20215;-74
2023/06/20 08:53:09;;;;;;;7.53;6.93;;;44.50;40.60;;;;;;10219807;28;20306;-74
2023/06/20 08:58:11;;;;;;;8.70;7.90;;;44.60;41.10;;;;;;10224999;28;20231;-74
2023/06/20 09:03:11;;;;;;;7.28;6.72;;;45.50;40.30;;;;;;10231054;28;20216;-74
2023/06/20 09:08:15;;;;;;;7.13;6.53;;;46.20;38.80;;;;;;10223770;28;20315;-74
2023/06/20 09:13:16;;;;;;;9.50;8.40;;;45.40;38.30;;;;;;10224490;28;20227;-74
2023/06/20 09:18:17;;;;;;;9.52;7.45;;;44.40;41.40;;;;;;10223149;28;20239;-75
2023/06/20 09:23:28;;;;;;;9.27;6.97;;;44.50;40.00;;;;;;10224616;28;20219;-75
2023/06/20 09:28:33;;;;;;;7.43;6.82;;;45.70;39.00;;;;;;10227839;28;20231;-75
2023/06/20 09:33:37;;;;;;;8.30;7.35;;;46.50;37.40;;;;;;10232687;28;20220;-74
2023/06/20 09:38:44;;;;;;;7.72;7.03;;;46.30;36.70;;;;;;10234231;28;20265;-75
2023/06/20 09:43:45;;;;;;;6.65;6.05;;;46.00;37.30;;;;;;10228046;28;20274;-74
2023/06/20 09:48:46;;;;;;;7.65;7.05;;;45.50;37.10;;;;;;10218914;28;20282;-74
2023/06/20 09:53:57;;;;;;;6.18;5.57;;;44.90;37.60;;;;;;10233253;28;20223;-74
2023/06/20 09:59:00;;;;;;;6.80;6.20;;;44.20;38.90;;;;;;10227416;28;20239;-75
2023/06/20 10:04:02;;;;;;;8.20;7.50;;;45.70;36.30;;;;;;10224179;28;20217;-74
2023/06/20 10:09:06;;;;;;;7.55;6.38;;;45.30;36.00;;;;;;10221042;28;20769;-74
2023/06/20 10:14:07;;;;;;;6.80;6.30;;;44.60;37.50;;;;;;10226347;28;20298;-74
2023/06/20 10:19:18;;;;;;;6.43;5.82;;;45.70;37.00;;;;;;10229308;28;20231;-74
2023/06/20 10:24:19;;;;;;;7.03;6.43;;;47.20;34.10;;;;;;10225692;28;20303;-74
2023/06/20 10:29:23;;;;;;;6.55;5.95;;;47.70;33.80;;;;;;10233416;28;20356;-74
2023/06/20 10:34:39;;;;;;;5.15;4.75;;;46.30;33.90;;;;;;10227329;28;20228;-74
2023/06/20 10:39:57;;;;;;;5.88;5.35;;;46.30;33.60;;;;;;10231085;28;20243;-73
2023/06/20 10:45:16;;;;;;;5.70;5.20;;;45.50;34.90;;;;;;10217896;28;20253;-73
2023/06/20 10:50:17;;;;;;;6.88;6.30;;;46.30;34.30;;;;;;10219800;28;20294;-75
2023/06/20 10:55:26;;;;;;;6.82;6.22;;;47.20;32.70;;;;;;10225703;28;20220;-75
2023/06/20 11:00:26;;;;;;;6.80;5.97;;;48.20;31.70;;;;;;10229767;28;20277;-75
2023/06/20 11:05:29;;;;;;;6.70;5.95;;;48.20;31.00;;;;;;10218275;28;20783;-74
2023/06/20 11:10:32;;;;;;;7.97;7.03;;;45.50;33.70;;;;;;10222954;28;20223;-73
2023/06/20 11:15:35;;;;;;;7.13;6.30;;;42.50;38.60;;;;;;10217354;28;20735;-74
2023/06/20 11:20:41;;;;;;;6.87;6.27;;;42.90;37.50;;;;;;10223718;28;20353;-74
2023/06/20 11:25:44;;;;;;;11.83;6.40;;;44.10;36.20;;;;;;10214556;28;20216;-75
2023/06/20 11:30:47;;;;;;;7.10;6.40;;;41.80;38.10;;;;;;10231532;28;20239;-74
2023/06/20 11:35:56;;;;;;;6.40;5.80;;;39.80;41.90;;;;;;10230310;28;20223;-74
2023/06/20 11:41:03;;;;;;;5.97;5.33;;;38.40;42.30;;;;;;10230456;28;20310;-74
2023/06/20 11:46:05;;;;;;;6.10;5.57;;;37.70;44.60;;;;;;10222385;28;20226;-74
2023/06/20 11:51:07;;;;;;;7.90;6.90;;;36.70;45.80;;;;;;10229561;28;20227;-75
2023/06/20 11:56:09;;;;;;;7.30;6.60;;;36.10;47.00;;;;;;10222799;28;20242;-73
2023/06/20 12:01:17;;;;;;;7.30;6.70;;;34.90;48.80;;;;;;10223066;28;20273;-74
2023/06/20 12:06:29;;;;;;;7.17;6.47;;;34.50;49.80;;;;;;10228647;28;20235;-73
2023/06/20 12:11:30;;;;;;;5.90;5.30;;;34.50;49.80;;;;;;10227698;28;20273;-73
2023/06/20 12:16:31;;;;;;;5.60;5.20;;;34.70;48.70;;;;;;10230013;28;20321;-73
2023/06/20 12:21:32;;;;;;;10.80;5.70;;;34.80;47.70;;;;;;10231141;28;20232;-75
2023/06/20 12:26:33;;;;;;;6.07;5.57;;;34.80;48.00;;;;;;10222468;28;20226;-73
2023/06/20 12:31:34;;;;;;;7.53;5.80;;;35.10;47.00;;;;;;10235707;28;20752;-72
2023/06/20 12:36:37;;;;;;;8.93;6.20;;;35.10;47.00;;;;;;10233895;28;20226;-73
2023/06/20 12:41:37;;;;;;;9.10;6.07;;;34.70;47.20;;;;;;10228772;28;20345;-73
2023/06/20 12:46:41;;;;;;;6.27;5.77;;;34.70;48.20;;;;;;10221007;28;20227;-73
2023/06/20 12:51:41;;;;;;;8.97;6.57;;;35.00;47.40;;;;;;10250481;28;20228;-73
2023/06/20 12:56:42;;;;;;;7.10;6.33;;;35.10;48.00;;;;;;10234732;28;20766;-73
2023/06/20 13:01:42;;;;;;;6.93;6.33;;;35.30;47.80;;;;;;10230633;28;20230;-74
2023/06/20 13:06:43;;;;;;;6.67;6.07;;;35.50;46.90;;;;;;10228548;28;20228;-74
2023/06/20 13:11:44;;;;;;;7.03;6.33;;;35.40;46.50;;;;;;10220176;28;20220;-74
2023/06/20 13:16:44;;;;;;;6.27;5.77;;;35.20;47.00;;;;;;10227520;28;20361;-72
2023/06/20 13:21:45;;;;;;;8.27;6.00;;;35.10;47.10;;;;;;10233371;28;20246;-73
2023/06/20 13:26:45;;;;;;;6.67;6.03;;;34.80;47.40;;;;;;10227582;28;20219;-73
2023/06/20 13:31:46;;;;;;;6.87;6.13;;;34.70;47.50;;;;;;10232428;28;20302;-73
2023/06/20 13:36:47;;;;;;;7.23;6.00;;;34.20;48.70;;;;;;10228019;28;20231;-74
2023/06/20 13:41:48;;;;;;;5.53;5.00;;;34.30;47.80;;;;;;10227571;28;20321;-74
2023/06/20 13:46:49;;;;;;;6.70;5.43;;;34.70;46.90;;;;;;10223322;28;20314;-74
2023/06/20 13:51:49;;;;;;;5.70;5.10;;;34.90;45.90;;;;;;10225682;28;20719;-75
2023/06/20 13:56:50;;;;;;;7.43;5.47;;;35.00;45.80;;;;;;10218632;28;20342;-74
2023/06/20 14:01:51;;;;;;;5.73;5.20;;;35.00;45.80;;;;;;10233959;28;20680;-74
2023/06/20 14:06:51;;;;;;;6.67;5.33;;;35.10;45.10;;;;;;10231857;28;20252;-73
2023/06/20 14:11:52;;;;;;;5.83;5.23;;;35.10;44.80;;;;;;10235189;28;20223;-74
2023/06/20 14:16:53;;;;;;;6.07;5.57;;;35.10;46.00;;;;;;10219336;28;20239;-74
2023/06/20 14:21:53;;;;;;;7.07;5.37;;;35.00;46.10;;;;;;10223983;28;20357;-75
2023/06/20 14:26:56;;;;;;;7.33;5.13;;;35.10;45.90;;;;;;10224993;28;20223;-73
2023/06/20 14:31:57;;;;;;;6.43;5.83;;;35.10;45.50;;;;;;10218216;28;20228;-74
2023/06/20 14:37:00;;;;;;;5.60;4.90;;;34.80;45.30;;;;;;10225536;28;20253;-73
2023/06/20 14:42:00;;;;;;;15.90;6.63;;;34.50;45.70;;;;;;10223140;28;20272;-73
2023/06/20 14:47:01;;;;;;;5.80;5.20;;;34.50;46.40;;;;;;10226018;28;20261;-73
2023/06/20 14:52:02;;;;;;;6.47;4.87;;;34.50;44.60;;;;;;10219915;28;20726;-74
2023/06/20 14:57:04;;;;;;;7.40;4.33;;;34.40;44.60;;;;;;10228290;28;20232;-74
2023/06/20 15:02:05;;;;;;;4.70;4.20;;;34.00;44.50;;;;;;10219622;28;20224;-74
2023/06/20 15:07:06;;;;;;;4.23;3.77;;;33.80;44.30;;;;;;10228516;28;20222;-73
2023/06/20 15:12:07;;;;;;;6.37;4.20;;;33.70;44.60;;;;;;10218493;28;20216;-73
2023/06/20 15:17:08;;;;;;;5.40;4.00;;;33.70;44.00;;;;;;10235580;28;20235;-73
2023/06/20 15:22:08;;;;;;;4.47;3.67;;;33.50;43.70;;;;;;10230915;28;20580;-74
2023/06/20 15:27:09;;;;;;;5.20;4.10;;;33.60;44.20;;;;;;10227183;28;20220;-74
2023/06/20 15:32:09;;;;;;;7.77;4.60;;;33.70;44.00;;;;;;10226587;28;20221;-74
2023/06/20 15:37:17;;;;;;;7.57;4.20;;;33.80;43.60;;;;;;10230039;28;20230;-74
2023/06/20 15:42:18;;;;;;;6.87;4.50;;;33.70;43.60;;;;;;10216191;28;20230;-74
2023/06/20 15:47:18;;;;;;;6.47;4.60;;;33.60;43.90;;;;;;10225678;28;20231;-75
2023/06/20 15:52:22;;;;;;;7.50;4.80;;;33.30;44.10;;;;;;10231930;28;20223;-74
2023/06/20 15:57:23;;;;;;;5.87;5.03;;;33.00;45.30;;;;;;10230137;28;20245;-73
2023/06/20 16:02:24;;;;;;;5.43;4.80;;;33.00;45.30;;;;;;10230477;28;20318;-73
2023/06/20 16:07:24;;;;;;;7.27;5.17;;;33.20;45.40;;;;;;10236846;28;20296;-73
2023/06/20 16:12:25;;;;;;;8.57;5.17;;;33.40;45.90;;;;;;10234991;28;20273;-73
2023/06/20 16:17:26;;;;;;;7.90;5.57;;;33.30;45.70;;;;;;10235097;28;20216;-74
2023/06/20 16:22:26;;;;;;;9.63;5.80;;;33.40;46.50;;;;;;10241751;28;20855;-71
2023/06/20 16:27:27;;;;;;;7.03;5.60;;;33.20;46.90;;;;;;10241537;28;20227;-72
2023/06/20 16:32:27;;;;;;;7.93;5.70;;;33.20;47.00;;;;;;10229819;28;20223;-72
2023/06/20 16:37:28;;;;;;;7.77;5.57;;;33.00;47.70;;;;;;10232720;28;20315;-71
2023/06/20 16:42:32;;;;;;;6.83;6.07;;;32.60;48.50;;;;;;10236871;28;20768;-70
2023/06/20 16:47:33;;;;;;;7.40;5.97;;;32.30;49.30;;;;;;10237345;28;20300;-72
2023/06/20 16:52:33;;;;;;;12.47;6.10;;;32.10;50.10;;;;;;10242106;28;20253;-72
2023/06/20 16:57:34;;;;;;;6.63;5.93;;;32.00;50.60;;;;;;10234149;28;20314;-71
2023/06/20 17:02:35;;;;;;;7.03;6.00;;;32.00;50.80;;;;;;10237168;28;20262;-70
2023/06/20 17:07:39;;;;;;;7.77;5.87;;;31.90;51.00;;;;;;10240912;28;20279;-70
2023/06/20 17:12:45;;;;;;;6.33;5.70;;;31.70;51.50;;;;;;10226142;28;20219;-69
2023/06/20 17:17:45;;;;;;;9.67;6.70;;;31.50;51.90;;;;;;10225336;28;20261;-69
2023/06/20 17:22:49;;;;;;;8.63;6.63;;;31.30;52.60;;;;;;10235320;28;20306;-74
2023/06/20 17:27:50;;;;;;;10.77;6.63;;;31.20;53.00;;;;;;10234105;28;20231;-71
2023/06/20 17:32:51;;;;;;;8.60;6.27;;;31.10;53.50;;;;;;10236635;28;20273;-71
2023/06/20 17:37:51;;;;;;;8.80;6.63;;;30.80;57.20;;;;;;10231003;28;20281;-69
2023/06/20 17:42:52;;;;;;;9.03;7.17;;;30.50;56.80;;;;;;10233533;28;20310;-69
2023/06/20 17:47:53;;;;;;;7.80;6.80;;;30.40;57.40;;;;;;10234638;28;20306;-71
2023/06/20 17:52:53;;;;;;;10.63;6.67;;;30.40;58.20;;;;;;10233826;28;20211;-69
2023/06/20 17:57:54;;;;;;;11.13;6.70;;;30.40;58.70;;;;;;10230309;28;20655;-69
2023/06/20 18:02:54;;;;;;;8.50;6.20;;;30.20;59.60;;;;;;10224549;28;20293;-69
2023/06/20 18:07:56;;;;;;;8.47;5.97;;;29.40;63.50;;;;;;10234295;28;20603;-68
2023/06/20 18:12:58;;;;;;;8.07;5.50;;;29.00;64.50;;;;;;10236028;28;20233;-69
2023/06/20 18:17:59;;;;;;;7.90;5.37;;;28.90;64.40;;;;;;10229883;28;20250;-69
2023/06/20 18:22:59;;;;;;;10.27;5.90;;;28.90;67.50;;;;;;10230711;28;20263;-70
2023/06/20 18:28:00;;;;;;;10.77;5.40;;;28.50;71.30;;;;;;10223058;28;20230;-70
2023/06/20 18:33:01;;;;;;;15.60;6.60;;;28.00;75.90;;;;;;10236544;28;20231;-70
2023/06/20 18:38:02;;;;;;;12.73;6.70;;;27.70;77.70;;;;;;10220489;28;20230;-70
2023/06/20 18:43:02;;;;;;;11.87;6.70;;;27.50;79.70;;;;;;10224696;28;20382;-69
2023/06/20 18:48:03;;;;;;;12.67;6.53;;;27.30;80.80;;;;;;10221739;28;20634;-71
2023/06/20 18:53:04;;;;;;;8.40;5.93;;;27.20;80.30;;;;;;10221195;28;20227;-70
2023/06/20 18:58:05;;;;;;;10.90;6.17;;;27.20;80.30;;;;;;10232483;28;20231;-70
2023/06/20 19:03:10;;;;;;;10.77;6.10;;;27.20;80.40;;;;;;10222645;28;20338;-71
2023/06/20 19:08:14;;;;;;;8.93;5.67;;;27.10;81.20;;;;;;10235355;28;20710;-70
2023/06/20 19:13:15;;;;;;;12.27;6.07;;;27.10;80.10;;;;;;10222531;28;20225;-71
2023/06/20 19:18:15;;;;;;;10.13;5.93;;;27.20;80.40;;;;;;10232546;28;20710;-71
2023/06/20 19:23:16;;;;;;;9.47;6.70;;;27.20;80.70;;;;;;10233881;28;20653;-71
2023/06/20 19:28:16;;;;;;;9.77;7.30;;;27.20;81.20;;;;;;10240309;28;20305;-71
2023/06/20 19:33:17;;;;;;;8.17;6.93;;;27.20;81.20;;;;;;10237872;28;20223;-70
2023/06/20 19:38:21;;;;;;;9.80;7.20;;;27.30;81.20;;;;;;10239422;28;20919;-71
2023/06/20 19:43:23;;;;;;;10.73;7.53;;;27.20;81.60;;;;;;10231309;28;20224;-67
2023/06/20 19:48:23;;;;;;;13.57;6.90;;;27.20;81.60;;;;;;10228538;28;20228;-68
2023/06/20 19:53:25;;;;;;;10.53;7.17;;;27.00;82.60;;;;;;10232179;28;20223;-69
2023/06/20 19:58:28;;;;;;;9.80;7.27;;;27.10;83.30;;;;;;10218272;28;20236;-68
2023/06/20 20:03:29;;;;;;;8.93;7.80;;;26.90;83.60;;;;;;10220094;28;20216;-70
2023/06/20 20:08:29;;;;;;;10.33;7.50;;;26.70;84.60;;;;;;10234008;28;20702;-69
2023/06/20 20:13:30;;;;;;;8.70;7.17;;;26.60;86.10;;;;;;10234030;28;20298;-68
2023/06/20 20:18:31;;;;;;;8.33;7.47;;;26.50;86.60;;;;;;10228283;28;20669;-67
2023/06/20 20:23:31;;;;;;;11.20;7.97;;;26.50;87.30;;;;;;10240657;28;20284;-66
2023/06/20 20:28:32;;;;;;;15.30;7.83;;;26.40;87.80;;;;;;10222598;28;20224;-67
2023/06/20 20:33:32;;;;;;;8.47;7.67;;;26.30;89.50;;;;;;10229506;28;20220;-67
2023/06/20 20:38:33;;;;;;;10.37;8.20;;;26.20;89.50;;;;;;10232566;28;20724;-67
2023/06/20 20:43:34;;;;;;;12.90;8.63;;;26.10;90.10;;;;;;10232853;28;20365;-68
2023/06/20 20:48:34;;;;;;;10.57;8.50;;;26.10;90.30;;;;;;10220486;28;20215;-68
2023/06/20 20:53:35;;;;;;;13.83;9.00;;;26.00;90.70;;;;;;10223645;28;20228;-69
2023/06/20 20:58:35;;;;;;;10.23;7.50;;;25.90;90.70;;;;;;10226783;28;20669;-67
2023/06/20 21:03:38;;;;;;;8.77;7.53;;;25.70;91.10;;;;;;10230282;28;20298;-67
2023/06/20 21:08:39;;;;;;;11.77;8.03;;;25.60;91.50;;;;;;10226665;28;20219;-68
2023/06/20 21:13:39;;;;;;;10.70;7.73;;;25.50;91.80;;;;;;10233445;28;20220;-69
2023/06/20 21:18:40;;;;;;;9.43;7.87;;;25.50;92.00;;;;;;10229582;28;20626;-68
2023/06/20 21:23:41;;;;;;;9.77;7.67;;;25.40;92.40;;;;;;10233176;28;20283;-70
2023/06/20 21:28:41;;;;;;;14.07;8.03;;;25.30;93.00;;;;;;10232808;28;20261;-67
2023/06/20 21:33:45;;;;;;;9.90;7.70;;;25.20;93.60;;;;;;10231125;28;20223;-68
2023/06/20 21:38:45;;;;;;;10.23;7.77;;;25.20;94.10;;;;;;10224676;28;20226;-67
2023/06/20 21:43:49;;;;;;;12.00;8.20;;;25.10;94.50;;;;;;10224352;28;20584;-67
2023/06/20 21:48:49;;;;;;;14.67;7.57;;;25.00;94.90;;;;;;10226806;28;20272;-67
2023/06/20 21:53:50;;;;;;;9.73;7.70;;;25.00;95.50;;;;;;10223205;28;20310;-66
2023/06/20 21:58:51;;;;;;;11.60;8.17;;;24.90;96.00;;;;;;10219662;28;20215;-67
2023/06/20 22:03:51;;;;;;;10.77;8.40;;;24.80;96.60;;;;;;10230829;28;20234;-68
2023/06/20 22:08:52;;;;;;;8.87;7.97;;;24.80;97.10;;;;;;10237381;28;20777;-68
2023/06/20 22:13:53;;;;;;;12.63;8.07;;;24.80;97.50;;;;;;10231214;28;20390;-69
2023/06/20 22:18:53;;;;;;;12.20;7.30;;;24.80;97.80;;;;;;10224776;28;20267;-70
2023/06/20 22:23:54;;;;;;;12.03;7.60;;;24.70;98.50;;;;;;10230804;28;20247;-67
2023/06/20 22:28:54;;;;;;;12.50;8.20;;;24.60;99.20;;;;;;10228879;28;20223;-67
2023/06/20 22:33:55;;;;;;;14.43;8.13;;;24.40;99.90;;;;;;10221981;28;20223;-66
2023/06/20 22:38:55;;;;;;;13.80;8.17;;;24.30;99.90;;;;;;10235835;28;20230;-67
2023/06/20 22:43:56;;;;;;;13.77;8.30;;;24.20;99.90;;;;;;10227683;28;20772;-67
2023/06/20 22:48:59;;;;;;;9.40;7.70;;;24.10;99.90;;;;;;10221756;28;20216;-68
2023/06/20 22:54:00;;;;;;;11.23;7.77;;;24.00;99.90;;;;;;10228291;28;20774;-66
2023/06/20 22:59:01;;;;;;;10.83;8.60;;;23.90;99.90;;;;;;10227079;28;20223;-67
2023/06/20 23:16:35;;;;;;;13.07;8.40;;;23.70;99.90;;;;;;10221947;28;20273;-66
2023/06/20 23:21:42;;;;;;;10.27;9.23;;;23.60;99.90;;;;;;10226445;28;20234;-65
2023/06/20 23:26:43;;;;;;;12.17;8.93;;;23.60;99.90;;;;;;10228272;28;20278;-66
2023/06/20 23:31:44;;;;;;;11.27;8.50;;;23.50;99.90;;;;;;10224532;28;20238;-65
2023/06/20 23:36:44;;;;;;;12.07;8.50;;;23.50;99.90;;;;;;10213255;28;20243;-66
2023/06/20 23:41:45;;;;;;;11.37;8.40;;;23.40;99.90;;;;;;10229363;28;20298;-67
2023/06/20 23:46:50;;;;;;;9.70;8.03;;;23.30;99.90;;;;;;10220835;28;20241;-67
2023/06/20 23:51:51;;;;;;;9.90;8.90;;;23.20;99.90;;;;;;10223452;28;20571;-66
2023/06/20 23:56:52;;;;;;;10.13;9.03;;;23.10;99.90;;;;;;10227742;28;20235;-65
